Historyczne dane pomiarowe

Dodano dane terminowe – wersja testowa.

Dane z okresu 1951-2019

Wersja bazy: 1.34 [2019-03-16, lista zmian], aktualizacja planowana na 2019-04-15

Dane meteo z obszaru Polski uzyskane na podstawie danych udostępnionych przez Instytut Meteorologii i Gospodarki Wodnej – Państwowy Instytut Badawczy.

 

Wybierz Datę:    

       

TemperaturaWilgotnośćWiatrCiśnienieOpadyŚniegCzas trwania zjawisk
 Stacja t tx tn tng RH VA  wxwx mslp ppp RRR   cm mm wxwxwxwxwxwxwx
2020-02-29 -0.9 5.0 -7.3-13.0 68.9 3.9 6.3 1.0 0.0 0.0- 910.5 0.0 0.0 0.0 18 2.3 4.8- 1.5--- 7.0-
2020-02-28 -2.0 -0.3 -4.0 -7.9 81.8 4.3 7.5 1.9 0.0 0.0- 907.9 4.4 3.7 0.7 14 2.9 0.1- 15.1-----
2020-02-27 -1.3 1.6 -2.3 -4.4 69.5 3.9 6.5 2.3 0.0 0.0- 903.1 4.3 0.2 4.1 10 3.5 3.2- 7.0-----
2020-02-26 2.9 8.6 1.3 0.8 64.0 4.8 7.1 2.8 0.0 0.0- 898.0 0.2 0.0 0.2 10 4.2 0.2- 0.8-----
2020-02-25 6.2 9.6 -1.4 -3.4 62.3 5.9 7.0 3.0 0.0 0.0- 904.9 0.0 0.0 0.0 13 3.5 0.3 3.3 1.5-----
2020-02-24 0.3 7.9 -1.8 -2.8 73.1 4.6 6.8 3.4 0.0 0.0- 914.6 0.5 0.2 0.3 14 3.4 2.5 0.8 7.6 1.3----
2020-02-23 6.3 10.1 4.9 2.6 66.9 6.4 7.8 4.3 0.0 0.0- 913.8 11.9 1.6 10.3 19 3.8 0.9 12.7 0.1---- 0.1
2020-02-22 1.3 7.8 -7.6-12.9 59.0 3.7 5.3 1.9 0.0 0.0- 923.7 0.0 0.0 0.0 23 2.8 6.1----- 8.0-
2020-02-21 -2.3 1.1 -7.6-15.2 84.0 4.4 6.3 2.1 0.0 0.0- 919.5 3.7 3.0 0.7 20 3.3 0.0- 11.2-----
2020-02-20 -1.5 2.2 -3.0-10.9 81.5 4.5 5.5 1.6 0.0 0.0- 920.1 0.2 0.2 0.0 20 3.4 0.7- 8.4-----
2020-02-19 2.0 4.9 -0.8 -2.5 58.6 4.1 7.0 2.3 0.0 0.0- 917.8 1.1 0.0 1.1 19 3.5 3.8- 4.5-----
2020-02-18 3.6 5.2 2.5 1.1 67.8 5.3 6.9 2.5 0.0 0.0- 921.1 0.0 0.0 0.0 20 3.3 2.2 4.6 0.1-----
2020-02-17 3.5 10.6 -1.4 -3.9 69.0 5.3 7.1 1.0 0.0 0.0- 919.2 2.6 0.0 2.6 23 2.7 6.2-------
2020-02-16 -0.1 7.1 -6.3-11.5 72.9 4.3 5.5 1.0 0.0 0.0- 923.3 0.0 0.0 0.0 24 2.6 6.3 0.9---- 8.0-
2020-02-15 0.7 4.9 -1.6 -5.9 78.5 5.0 5.0 1.4 0.0 0.0- 925.3 0.0 0.0 0.0 25 2.2 6.7- 4.7--- 3.0-
2020-02-14 1.3 2.8 -1.1 -4.2 78.0 5.2 7.4 2.0 0.0 0.0- 914.1 1.3 0.0 1.3 28 2.0 0.0- 7.8 0.1----
2020-02-13 -0.5 3.5 -4.6-11.8 56.0 3.2 5.4 2.8 0.0 0.0- 915.6 0.0 0.0 0.0 29 1.9 7.4- 2.1-----
2020-02-12 -1.6 -0.4 -3.1 -5.8 69.6 3.8 7.1 3.9 0.0 0.0- 910.9 1.7 1.4 0.3 24 2.2 0.8- 10.8-----
2020-02-11 -0.1 3.7 -2.2 -4.0 70.6 4.3 6.6 4.3 0.0 0.0- 902.0 2.4 1.9 0.5 22 2.6 0.2 0.2 9.7-----
2020-02-10 3.6 12.2 -6.0-11.1 64.0 5.0 6.4 3.9 0.0 0.0- 904.1 1.9 0.6 1.3 30 2.3 2.6 3.2 3.0 0.1----
2020-02-09 -3.2 4.0 -7.5-14.3 85.9 4.2 2.3 1.0 0.0 0.0- 922.3 0.0 0.0 0.0 31 2.1 8.1----- 15.5-
2020-02-08 -5.2 2.8-11.9-19.1 81.0 3.4 0.4 0.6 0.0 0.0- 926.3 0.0 0.0 0.0 32 1.8 8.4----- 10.5-
2020-02-07 -3.0 0.6 -6.8-15.3 88.6 4.5 5.6 0.9 0.0 0.0- 924.2 2.3 2.3 0.0 31 1.7 0.9- 10.8--- 6.0-
2020-02-06 -3.9 -1.8 -7.9-15.5 81.6 3.8 6.0 2.0 0.0 0.0- 923.2 3.2 0.0 3.2 31 1.3 0.0- 8.2 0.2-- 5.9-
2020-02-05 -3.7 -0.2 -7.0-12.6 83.0 4.0 7.0 2.0 0.0 0.0- 915.5 3.5 3.5 0.0 28 1.4 0.1- 12.5-----
2020-02-04 0.3 3.3 -1.7 -1.7 90.9 5.7 7.6 1.9 0.0 0.0- 901.7 22.0 11.8 10.2 10 3.9 0.0 2.7 12.6 3.3----
2020-02-03 3.2 8.4 0.9 0.2 86.0 6.6 7.6 2.8 0.0 0.0- 908.6 6.2 5.8 0.4 11 3.8 0.0 16.5- 1.1----
2020-02-02 4.6 9.6 1.6 -0.2 75.9 6.4 7.3 2.9 0.0 0.0- 909.0 13.2 1.1 12.1 16 3.9 1.2 8.5 0.2 0.8----
2020-02-01 5.4 10.2 2.0 0.1 77.1 6.9 5.8 1.3 0.0 0.0- 910.3 2.9 0.0 2.9 19 3.5 6.2 1.7------
2020-01-31 3.1 6.9 -2.2 -5.2 81.9 6.3 7.5 2.1 0.0 0.0- 908.0 3.6 3.6 0.0 21 3.5 0.0 7.0- 0.4-- 4.8-
2020-01-30 0.2 2.1 -2.1 -4.0 67.5 4.2 6.8 3.0 0.0 0.0- 911.5 1.3 0.3 1.0 23 3.1 3.9- 3.8-----
2020-01-29 -0.9 2.4 -2.7 -5.0 65.4 3.8 6.1 3.6 0.0 0.0- 904.7 1.1 0.2 0.9 21 3.3 4.0- 6.4-----
2020-01-28 -0.3 4.9 -5.2 -9.0 79.1 4.7 7.0 1.8 0.0 0.0- 904.8 1.4 0.6 0.8 20 3.3 1.7 0.7 2.3--- 7.0-
2020-01-27 -0.5 6.6 -4.4 -8.0 70.3 4.0 4.0 0.6 0.0 0.0- 915.3 0.0 0.0 0.0 20 3.3 4.5----- 11.0-
2020-01-26 -2.0 6.2 -7.5-12.1 71.4 3.7 4.5 0.5 0.0 0.0- 918.7 0.0 0.0 0.0 20 2.9 6.1----- 8.0-
2020-01-25 -3.7 6.3 -9.3-14.0 68.5 3.1 0.6 0.8 0.0 0.0- 919.7 0.0 0.0 0.0 21 3.1 7.4----- 11.0-
2020-01-24 -4.8 2.1 -9.0-13.6 66.3 2.8 0.0 1.0 0.0 0.0- 922.6 0.0 0.0 0.0 21 3.2 7.3----- 16.0-
2020-01-23 -3.0 1.5 -5.7-10.4 71.9 3.6 3.4 1.0 0.0 0.0- 929.7 0.0 0.0 0.0 22 3.2 7.2- 4.2--- 7.0-
2020-01-22 -0.1 7.5 -6.4-12.0 55.6 3.2 4.6 2.3 0.0 0.0- 927.2 0.3 0.0 0.3 22 3.2 4.5- 7.8 0.5----
2020-01-21 -1.9 6.1 -8.1-13.4 67.6 3.5 0.8 1.4 0.0 0.0- 937.1 0.0 0.0 0.0 22 3.3 7.1-------
2020-01-20 -1.7 0.1 -2.0 -2.1 90.0 4.9 6.5 1.0 0.0 0.0- 939.1 0.0 0.0 0.0 22 3.0 0.0- 5.6- 3.9---
2020-01-19 -1.1 -0.6 -2.8 -5.9 91.6 5.2 7.9 0.8 0.0 0.0- 926.9 3.9 3.2 0.7 19 3.1 0.0- 20.7 0.8-- 0.8-
2020-01-18 -1.4 4.0 -5.6-10.2 79.0 4.3 5.5 1.0 0.0 0.0- 922.2 0.9 0.0 0.9 19 3.1 6.2----- 16.0-
2020-01-17 -1.2 4.5 -6.0-10.7 81.8 4.6 4.0 1.1 0.0 0.0- 925.3 0.0 0.0 0.0 19 3.2 5.7----- 8.0-
2020-01-16 -0.8 4.1 -5.8 -9.9 86.9 5.1 5.9 1.0 0.0 0.0- 928.4 0.0 0.0 0.0 19 3.2 0.0----- 9.0-
2020-01-15 -2.4 5.2 -6.5-11.0 78.3 3.9 5.5 0.6 0.0 0.0- 923.7 0.0 0.0 0.0 19 2.6 6.6----- 3.0-
2020-01-14 -3.1 0.6 -4.5 -8.2 91.0 4.4 5.9 0.6 0.0 0.0- 920.9 0.0 0.0 0.0 19 2.7 3.6--- 6.4- 2.1-
2020-01-13 -2.0 3.2 -6.5-10.2 87.4 4.7 7.0 0.9 0.0 0.0- 922.6 0.0 0.0 0.0 20 2.6 5.3- 0.4--- 11.2-
2020-01-12 -2.1 6.0 -6.2-10.9 81.3 4.2 4.5 0.6 0.0 0.0- 925.6 0.0 0.0 0.0 21 2.5 6.5----- 9.0-
2020-01-11 1.4 4.6 -0.3 -1.1 85.5 5.8 7.6 2.3 0.0 0.0- 926.2 0.7 0.7 0.0 20 3.0 0.0 2.5 5.6 1.2----
2020-01-10 1.4 5.5 -1.4 -1.4 90.4 6.1 6.8 0.8 0.0 0.0- 919.3 0.0 0.0 0.0 21 2.9 2.7--- 9.8---
2020-01-09 1.2 3.0 -2.8 -4.2 97.8 6.5 7.9 0.5 0.0 0.0- 922.7 0.9 0.9 0.0 25 2.3 0.0 7.1-- 16.8---
2020-01-08 -2.2 3.3 -9.2-14.6 82.3 4.3 4.0 1.3 0.0 0.0- 926.7 4.7 0.0 4.7 29 1.9 6.3 3.1---- 11.0-
2020-01-07 -6.9 0.1-11.1-16.7 86.8 3.2 0.9 0.8 0.0 0.0- 924.1 0.0 0.0 0.0 32 1.8 6.2----- 15.0-
2020-01-06 -6.2 -1.2-10.2-14.2 82.6 3.2 5.1 0.9 0.0 0.0- 927.8 0.0 0.0 0.0 34 1.7 1.8- 0.2--- 6.0-
2020-01-05 -4.1 -0.3 -5.3 -6.2 83.6 3.8 7.9 2.8 0.0 0.0- 924.4 3.4 3.4 0.0 29 2.0 0.0- 24.0-----
2020-01-04 0.8 4.9 -3.3 -8.5 83.6 5.4 7.6 3.6 0.0 0.0- 917.5 8.4 1.9 6.5 21 2.5 0.0 2.1 9.8 0.8----
2020-01-03 -1.1 5.8 -6.2-11.7 68.8 3.8 2.5 1.4 0.0 0.0- 922.4 0.0 0.0 0.0 23 2.2 6.2----- 9.0-
2020-01-02 -1.5 6.0 -5.5-10.9 56.8 3.1 4.4 1.3 0.0 0.0- 928.8 0.0 0.0 0.0 24 2.0 3.6-------
2020-01-01 -1.7 0.5 -4.5 -9.7 73.1 4.0 4.3 2.0 0.0 0.0- 929.5 0.0 0.0 0.0 24 2.2 5.4- 1.5-----
53.1 ms

 

Źródłem pochodzenia danych jest Instytut Meteorologii i Gospodarki Wodnej – Państwowy Instytut Badawczy. Dane Instytutu Meteorologii i Gospodarki Wodnej – Państwowego Instytutu Badawczego zostały przetworzone.

Dane źródłowe można odnaleźć na stronie https://dane.imgw.pl